createdAt,value
2022-07-29T00:00:02.637Z,13.15
2022-07-29T00:06:35.113Z,12.80
2022-07-29T00:12:43.202Z,12.58
2022-07-29T00:18:15.326Z,12.55
2022-07-29T00:24:29.003Z,12.48
2022-07-29T00:29:43.331Z,12.50
2022-07-29T00:36:05.559Z,12.60
2022-07-29T00:42:02.599Z,12.67
2022-07-29T00:47:27.383Z,12.63
2022-07-29T00:53:38.594Z,12.65
2022-07-29T00:59:06.575Z,12.80
2022-07-29T01:05:14.860Z,12.80
2022-07-29T01:10:40.547Z,12.72
2022-07-29T01:16:10.661Z,12.63
2022-07-29T01:22:29.221Z,12.67
2022-07-29T01:28:36.613Z,12.76
2022-07-29T01:34:44.513Z,12.82
2022-07-29T01:40:14.307Z,12.49
2022-07-29T01:46:01.873Z,12.27
2022-07-29T01:51:28.297Z,12.19
2022-07-29T01:57:26.243Z,12.10
2022-07-29T02:03:19.293Z,11.87
2022-07-29T02:09:45.881Z,11.82
2022-07-29T02:15:52.023Z,11.75
2022-07-29T02:21:30.247Z,11.76
2022-07-29T02:27:35.437Z,11.90
2022-07-29T02:33:04.000Z,12.01
2022-07-29T02:38:56.689Z,12.06
2022-07-29T02:44:25.921Z,11.98
2022-07-29T02:50:36.971Z,11.81
2022-07-29T02:56:54.026Z,11.63
2022-07-29T03:10:26.226Z,11.59
2022-07-29T03:15:55.435Z,11.69
2022-07-29T03:27:38.485Z,11.57
2022-07-29T03:33:41.487Z,11.70
2022-07-29T03:39:19.334Z,11.80
2022-07-29T03:44:28.138Z,11.76
2022-07-29T03:49:40.418Z,11.74
2022-07-29T03:54:59.442Z,11.91
2022-07-29T04:00:26.673Z,12.19
2022-07-29T04:06:43.893Z,12.52
2022-07-29T04:12:40.533Z,12.74
2022-07-29T04:18:26.584Z,13.14
2022-07-29T04:23:34.622Z,13.45
2022-07-29T04:28:58.001Z,13.40
2022-07-29T04:34:11.596Z,13.64
2022-07-29T04:39:27.261Z,14.38
2022-07-29T04:44:37.232Z,15.25
2022-07-29T04:49:43.568Z,16.05
2022-07-29T04:55:50.515Z,16.77
2022-07-29T05:01:09.042Z,17.26
2022-07-29T05:06:25.660Z,17.43
2022-07-29T05:11:31.992Z,17.53
2022-07-29T05:16:48.897Z,17.77
2022-07-29T05:21:55.499Z,18.02
2022-07-29T05:26:59.259Z,18.31
2022-07-29T05:32:05.263Z,18.61
2022-07-29T05:37:21.403Z,19.11
2022-07-29T05:42:30.336Z,19.65
2022-07-29T05:47:36.318Z,20.12
2022-07-29T05:52:42.477Z,20.28
2022-07-29T05:57:56.123Z,20.48
2022-07-29T06:03:19.809Z,20.64
2022-07-29T06:08:23.361Z,20.74
2022-07-29T06:13:26.572Z,20.71
2022-07-29T06:18:35.399Z,20.51
2022-07-29T06:23:40.582Z,20.65
2022-07-29T06:28:43.940Z,20.96
2022-07-29T06:33:49.677Z,20.81
2022-07-29T06:38:57.983Z,20.68
2022-07-29T06:44:01.408Z,20.73
2022-07-29T06:49:05.628Z,20.94
2022-07-29T06:54:08.958Z,21.23
2022-07-29T06:59:13.699Z,21.45
2022-07-29T07:04:30.093Z,21.58
2022-07-29T07:09:40.641Z,21.52
2022-07-29T07:14:47.701Z,21.45
2022-07-29T07:20:05.459Z,21.28
2022-07-29T07:25:11.902Z,21.42
2022-07-29T07:30:15.783Z,21.44
2022-07-29T07:35:19.454Z,21.62
2022-07-29T07:40:25.280Z,21.69
2022-07-29T07:45:33.678Z,21.86
2022-07-29T07:50:38.095Z,22.44
2022-07-29T08:01:07.237Z,22.69
2022-07-29T08:06:12.946Z,22.93
2022-07-29T08:11:16.670Z,23.17
2022-07-29T08:16:20.098Z,23.47
2022-07-29T08:21:27.011Z,23.84
2022-07-29T08:26:33.373Z,23.94
2022-07-29T08:31:38.411Z,22.96
2022-07-29T08:36:41.888Z,22.92
2022-07-29T08:41:57.362Z,22.95
2022-07-29T08:47:06.458Z,22.91
2022-07-29T08:52:12.825Z,23.29
2022-07-29T08:57:51.112Z,23.64
2022-07-29T09:03:00.401Z,23.68
2022-07-29T09:08:06.441Z,23.55
2022-07-29T09:13:12.454Z,23.08
2022-07-29T09:18:48.276Z,22.71
2022-07-29T09:24:46.708Z,21.79
2022-07-29T09:30:13.646Z,21.52
2022-07-29T09:35:57.183Z,21.75
2022-07-29T09:41:11.327Z,22.07
2022-07-29T09:46:20.359Z,22.12
2022-07-29T09:51:38.316Z,22.32
2022-07-29T09:56:45.154Z,22.72
2022-07-29T10:01:51.784Z,23.15
2022-07-29T10:07:05.360Z,23.32
2022-07-29T10:12:16.765Z,23.43
2022-07-29T10:17:22.958Z,23.33
2022-07-29T10:22:51.426Z,23.05
2022-07-29T10:27:55.019Z,23.16
2022-07-29T10:33:32.320Z,23.55
2022-07-29T10:39:03.273Z,23.69
2022-07-29T10:44:17.435Z,23.83
2022-07-29T10:49:33.277Z,24.07
2022-07-29T10:54:37.237Z,24.43
2022-07-29T10:59:53.237Z,24.49
2022-07-29T11:04:56.702Z,24.40
2022-07-29T11:16:06.569Z,24.02
2022-07-29T11:21:53.931Z,24.24
2022-07-29T11:27:28.561Z,24.97
2022-07-29T11:32:59.794Z,24.28
2022-07-29T11:38:31.631Z,24.16
2022-07-29T11:43:56.123Z,24.20
2022-07-29T11:49:01.280Z,23.66
2022-07-29T11:54:06.522Z,23.44
2022-07-29T11:59:32.982Z,23.61
2022-07-29T12:05:02.066Z,23.94
2022-07-29T12:10:31.922Z,24.08
2022-07-29T12:16:00.109Z,24.01
2022-07-29T12:21:09.623Z,24.18
2022-07-29T12:26:25.342Z,24.20
2022-07-29T12:31:41.960Z,24.37
2022-07-29T12:36:48.401Z,24.48
2022-07-29T12:42:04.802Z,24.57
2022-07-29T12:47:10.812Z,24.99
2022-07-29T12:52:33.927Z,25.04
2022-07-29T12:57:48.855Z,25.31
2022-07-29T13:03:02.466Z,25.00
2022-07-29T13:08:21.952Z,24.95
2022-07-29T13:13:31.081Z,24.74
2022-07-29T13:18:37.557Z,24.25
2022-07-29T13:23:44.131Z,23.94
2022-07-29T13:28:47.443Z,24.13
2022-07-29T13:33:51.007Z,24.16
2022-07-29T13:39:02.126Z,24.26
2022-07-29T13:44:05.459Z,24.22
2022-07-29T13:49:08.993Z,24.15
2022-07-29T13:54:12.369Z,24.61
2022-07-29T13:59:20.045Z,24.87
2022-07-29T14:04:24.493Z,24.69
2022-07-29T14:09:28.297Z,24.40
2022-07-29T14:14:33.545Z,24.26
2022-07-29T14:19:39.098Z,24.21
2022-07-29T14:24:42.647Z,24.01
2022-07-29T14:29:47.079Z,23.97
2022-07-29T14:34:53.494Z,24.09
2022-07-29T14:40:00.840Z,24.52
2022-07-29T14:45:09.228Z,24.75
2022-07-29T14:50:13.307Z,24.89
2022-07-29T14:55:20.127Z,24.91
2022-07-29T15:00:23.798Z,24.70
2022-07-29T15:05:27.939Z,24.03
2022-07-29T15:10:40.156Z,24.18
2022-07-29T15:15:44.164Z,24.22
2022-07-29T15:20:47.783Z,23.99
2022-07-29T15:25:51.105Z,23.77
2022-07-29T15:30:57.427Z,23.43
2022-07-29T15:36:00.903Z,23.09
2022-07-29T15:41:04.240Z,23.01
2022-07-29T15:46:26.304Z,23.00
2022-07-29T15:51:29.686Z,23.07
2022-07-29T15:56:36.635Z,23.39
2022-07-29T16:01:42.500Z,23.68
2022-07-29T16:06:48.010Z,23.85
2022-07-29T16:11:53.785Z,23.86
2022-07-29T16:16:57.371Z,23.82
2022-07-29T16:22:00.951Z,23.82
2022-07-29T16:27:04.571Z,23.80
2022-07-29T16:32:10.328Z,24.06
2022-07-29T16:37:16.369Z,23.74
2022-07-29T16:42:36.995Z,23.17
2022-07-29T16:47:46.427Z,23.33
2022-07-29T16:52:49.936Z,23.58
2022-07-29T16:57:53.179Z,23.31
2022-07-29T17:02:56.666Z,22.89
2022-07-29T17:07:59.824Z,22.85
2022-07-29T17:13:02.943Z,23.25
2022-07-29T17:18:12.720Z,23.38
2022-07-29T17:23:16.589Z,23.12
2022-07-29T17:28:20.200Z,23.55
2022-07-29T17:33:23.378Z,23.78
2022-07-29T17:38:26.771Z,23.92
2022-07-29T17:43:30.017Z,24.18
2022-07-29T17:48:33.284Z,24.27
2022-07-29T17:53:38.321Z,24.25
2022-07-29T17:58:42.115Z,23.60
2022-07-29T18:03:48.781Z,22.63
2022-07-29T18:08:52.738Z,21.87
2022-07-29T18:13:59.051Z,21.36
2022-07-29T18:19:08.940Z,21.02
2022-07-29T18:24:17.642Z,20.75
2022-07-29T18:29:24.244Z,20.43
2022-07-29T18:34:30.571Z,20.13
2022-07-29T18:39:36.885Z,19.77
2022-07-29T18:44:43.666Z,19.48
2022-07-29T18:49:49.820Z,19.24
2022-07-29T18:54:53.361Z,19.02
2022-07-29T18:59:56.595Z,18.79
2022-07-29T19:05:00.213Z,18.57
2022-07-29T19:10:04.056Z,18.39
2022-07-29T19:15:08.355Z,18.18
2022-07-29T19:20:12.230Z,17.93
2022-07-29T19:25:15.590Z,17.66
2022-07-29T19:30:18.920Z,17.40
2022-07-29T19:35:24.834Z,17.28
2022-07-29T19:40:30.266Z,17.21
2022-07-29T19:45:34.403Z,17.11
2022-07-29T19:50:37.721Z,17.07
2022-07-29T19:55:43.227Z,17.00
2022-07-29T20:00:50.414Z,16.88
2022-07-29T20:05:54.511Z,16.82
2022-07-29T20:10:57.926Z,16.81
2022-07-29T20:16:05.568Z,16.77
2022-07-29T20:21:09.148Z,16.65
2022-07-29T20:26:12.903Z,16.54
2022-07-29T20:31:17.081Z,16.44
2022-07-29T20:36:20.560Z,16.32
2022-07-29T20:41:23.904Z,16.27
2022-07-29T20:46:27.515Z,16.16
2022-07-29T20:51:30.697Z,15.97
2022-07-29T20:56:36.066Z,15.87
2022-07-29T21:01:39.590Z,15.82
2022-07-29T21:06:42.835Z,15.87
2022-07-29T21:11:46.691Z,15.87
2022-07-29T21:16:50.923Z,15.77
2022-07-29T21:21:54.229Z,15.67
2022-07-29T21:27:21.778Z,15.58
2022-07-29T21:32:30.055Z,15.45
2022-07-29T21:37:33.945Z,15.31
2022-07-29T21:42:39.914Z,15.16
2022-07-29T21:47:43.199Z,15.02
2022-07-29T21:52:46.499Z,14.93
2022-07-29T21:57:50.957Z,14.91
2022-07-29T22:02:54.533Z,14.88
2022-07-29T22:07:58.734Z,14.78
2022-07-29T22:13:03.574Z,14.67
